Time;durP1;ratioP1;P1;durP2;ratioP2;P2;SDS_P1;SDS_P2;PMS_P1;PMS_P2;Temp;Humidity;BMP_temperature;BMP_pressure;BME280_temperature;BME280_humidity;BME280_pressure;Samples;Min_cycle;Max_cycle;Signal;HPM_P1;HPM_P2
2021/04/22 00:00:22;;;;;;;12.23;8.67;;;12.50;95.70;;;;;;5031333;28;20453;-70
2021/04/22 00:02:48;;;;;;;10.40;7.67;;;12.20;95.60;;;;;;5048228;28;20442;-69
2021/04/22 00:05:23;;;;;;;13.40;8.40;;;12.00;95.80;;;;;;5014976;28;20474;-69
2021/04/22 00:07:50;;;;;;;8.70;7.50;;;12.10;95.90;;;;;;5031519;28;20591;-69
2021/04/22 00:10:20;;;;;;;9.47;7.67;;;12.00;95.90;;;;;;5014150;28;20454;-69
2021/04/22 00:12:46;;;;;;;10.77;7.40;;;12.10;95.90;;;;;;5032104;28;20450;-69
2021/04/22 00:15:16;;;;;;;7.50;6.50;;;12.20;95.90;;;;;;5047845;28;20462;-70
2021/04/22 00:17:43;;;;;;;10.43;7.30;;;12.20;95.80;;;;;;5032211;28;20224;-69
2021/04/22 00:20:10;;;;;;;8.90;6.90;;;12.20;95.80;;;;;;5020883;28;20457;-69
2021/04/22 00:22:36;;;;;;;11.40;7.97;;;12.20;95.60;;;;;;5031841;28;20459;-69
2021/04/22 00:25:02;;;;;;;10.37;7.13;;;12.20;95.60;;;;;;5031565;28;20474;-69
2021/04/22 00:27:28;;;;;;;11.47;8.17;;;12.20;95.60;;;;;;5014875;28;20287;-68
2021/04/22 00:29:54;;;;;;;9.20;7.57;;;12.20;95.60;;;;;;5015135;28;20968;-69
2021/04/22 00:32:19;;;;;;;9.60;7.70;;;12.20;95.50;;;;;;5047594;28;20224;-69
2021/04/22 00:34:45;;;;;;;9.60;8.57;;;12.10;95.50;;;;;;5031757;28;20227;-69
2021/04/22 00:37:11;;;;;;;12.40;9.10;;;12.10;95.40;;;;;;5031803;28;20216;-68
2021/04/22 00:39:37;;;;;;;9.47;8.50;;;12.00;95.40;;;;;;5030433;28;20237;-69
2021/04/22 00:42:04;;;;;;;10.03;8.37;;;12.00;95.40;;;;;;5049643;28;20310;-68
2021/04/22 00:44:30;;;;;;;8.40;7.50;;;12.00;95.40;;;;;;5030908;28;20536;-68
2021/04/22 00:46:56;;;;;;;10.00;7.13;;;11.90;95.30;;;;;;5031873;28;20929;-69
2021/04/22 00:49:22;;;;;;;11.50;7.30;;;11.80;95.30;;;;;;5045510;28;20216;-72
2021/04/22 00:51:48;;;;;;;8.57;7.70;;;11.40;95.60;;;;;;5012459;28;20450;-71
2021/04/22 00:54:14;;;;;;;9.00;7.47;;;11.30;95.90;;;;;;5049095;28;20503;-70
2021/04/22 00:56:41;;;;;;;12.03;5.93;;;11.40;96.10;;;;;;5035888;28;20660;-70
2021/04/22 00:59:07;;;;;;;12.23;7.10;;;11.30;96.10;;;;;;5043020;28;20446;-70
2021/04/22 01:01:33;;;;;;;8.23;7.13;;;11.20;96.40;;;;;;5040613;28;20301;-70
2021/04/22 01:03:58;;;;;;;7.27;5.17;;;11.20;96.50;;;;;;5030635;28;20258;-70
2021/04/22 01:06:24;;;;;;;9.10;6.40;;;11.20;96.60;;;;;;5024930;28;20291;-70
2021/04/22 01:08:50;;;;;;;9.40;6.20;;;11.20;96.80;;;;;;5029395;28;20223;-70
2021/04/22 01:11:16;;;;;;;8.57;6.00;;;11.10;96.60;;;;;;5026072;28;20474;-71
2021/04/22 01:13:42;;;;;;;8.37;6.57;;;11.20;96.60;;;;;;5033388;28;20269;-70
2021/04/22 01:16:07;;;;;;;7.13;6.03;;;11.20;96.60;;;;;;5043661;28;21004;-70
2021/04/22 01:18:33;;;;;;;9.50;6.60;;;11.20;96.60;;;;;;5011056;28;20219;-71
2021/04/22 01:21:01;;;;;;;8.40;5.83;;;11.20;96.60;;;;;;5018434;28;20219;-71
2021/04/22 01:23:27;;;;;;;7.27;5.60;;;11.30;96.50;;;;;;5014903;28;22658;-71
2021/04/22 01:25:53;;;;;;;9.57;6.20;;;11.30;96.50;;;;;;5050741;28;21012;-70
2021/04/22 01:28:21;;;;;;;9.60;6.87;;;11.30;96.50;;;;;;5048550;28;20482;-70
2021/04/22 01:30:51;;;;;;;8.73;6.03;;;11.30;96.50;;;;;;5025479;28;20245;-71
2021/04/22 01:33:19;;;;;;;9.37;6.30;;;11.30;96.50;;;;;;5030098;28;20493;-71
2021/04/22 01:35:49;;;;;;;6.33;5.50;;;11.20;96.30;;;;;;5025625;28;20459;-70
2021/04/22 01:38:16;;;;;;;7.93;5.90;;;11.10;96.50;;;;;;5038758;28;20455;-71
2021/04/22 01:40:45;;;;;;;8.73;5.73;;;11.10;96.30;;;;;;5025877;28;20538;-70
2021/04/22 01:43:10;;;;;;;8.03;5.80;;;11.10;96.40;;;;;;5034059;28;20514;-70
2021/04/22 01:45:37;;;;;;;8.80;5.37;;;11.20;96.30;;;;;;5052314;28;20541;-70
2021/04/22 01:48:04;;;;;;;8.37;6.43;;;11.10;96.20;;;;;;5050863;28;20761;-70
2021/04/22 01:50:31;;;;;;;10.43;6.50;;;11.10;96.30;;;;;;5030725;28;20539;-70
2021/04/22 01:52:59;;;;;;;10.60;6.43;;;11.10;96.40;;;;;;5015318;28;20467;-70
2021/04/22 01:55:30;;;;;;;7.27;5.90;;;11.10;96.40;;;;;;5039988;28;20459;-70
2021/04/22 01:57:56;;;;;;;8.73;5.93;;;11.00;96.20;;;;;;5043856;28;20208;-70
2021/04/22 02:00:30;;;;;;;10.93;6.20;;;10.80;96.40;;;;;;5050034;28;20875;-70
2021/04/22 02:02:56;;;;;;;9.40;5.60;;;10.60;96.40;;;;;;5050799;28;20220;-70
2021/04/22 02:05:22;;;;;;;7.93;6.87;;;10.60;96.60;;;;;;5045935;28;20558;-70
2021/04/22 02:07:49;;;;;;;8.27;6.30;;;10.60;96.70;;;;;;5051634;28;20258;-70
2021/04/22 02:10:15;;;;;;;10.80;6.07;;;10.70;96.70;;;;;;5043267;28;20700;-70
2021/04/22 02:12:41;;;;;;;11.43;5.40;;;10.70;96.70;;;;;;5017691;28;20508;-70
2021/04/22 02:15:10;;;;;;;10.50;5.80;;;10.80;96.70;;;;;;5029129;28;20344;-70
2021/04/22 02:17:36;;;;;;;9.70;6.20;;;10.70;96.50;;;;;;5032792;28;20251;-70
2021/04/22 02:20:06;;;;;;;9.10;5.70;;;10.80;96.50;;;;;;5017669;28;20541;-70
2021/04/22 02:22:32;;;;;;;8.33;5.10;;;10.80;96.50;;;;;;5034977;28;20235;-70
2021/04/22 02:24:57;;;;;;;8.93;5.43;;;10.70;96.40;;;;;;5050503;28;21001;-70
2021/04/22 02:27:23;;;;;;;8.17;5.20;;;10.70;96.40;;;;;;5033532;28;20312;-70
2021/04/22 02:29:49;;;;;;;7.07;4.60;;;10.60;96.40;;;;;;5001074;28;20208;-71
2021/04/22 02:32:14;;;;;;;7.10;5.07;;;10.40;96.50;;;;;;5016815;28;20231;-70
2021/04/22 02:34:40;;;;;;;7.20;4.70;;;10.40;96.60;;;;;;5017551;28;20313;-70
2021/04/22 02:37:06;;;;;;;5.87;4.50;;;10.30;96.60;;;;;;5017510;28;20212;-70
2021/04/22 02:39:32;;;;;;;8.10;4.37;;;10.20;96.60;;;;;;5016464;28;20220;-70
2021/04/22 02:41:58;;;;;;;6.80;4.43;;;10.10;96.70;;;;;;5029888;28;20457;-70
2021/04/22 02:44:23;;;;;;;6.23;4.60;;;10.00;96.70;;;;;;5017205;28;20242;-70
2021/04/22 02:46:49;;;;;;;6.87;4.67;;;10.00;96.70;;;;;;5017181;28;20266;-70
2021/04/22 02:49:15;;;;;;;6.00;4.53;;;10.00;96.70;;;;;;5049124;28;20215;-70
2021/04/22 02:51:40;;;;;;;9.83;4.60;;;9.90;97.20;;;;;;5016930;28;20216;-70
2021/04/22 02:54:06;;;;;;;5.33;4.20;;;9.80;97.30;;;;;;5033882;28;20224;-70
2021/04/22 02:56:32;;;;;;;3.40;3.00;;;9.80;97.50;;;;;;5016646;28;20274;-70
2021/04/22 02:58:57;;;;;;;5.97;2.80;;;9.80;97.20;;;;;;5034739;28;20635;-70
2021/04/22 03:01:23;;;;;;;4.70;3.60;;;9.60;97.00;;;;;;5017103;28;20313;-69
2021/04/22 03:03:49;;;;;;;6.70;3.80;;;9.50;96.90;;;;;;5033461;28;20626;-69
2021/04/22 03:06:14;;;;;;;5.23;3.17;;;9.40;96.90;;;;;;5028087;28;20655;-70
2021/04/22 03:08:40;;;;;;;3.43;2.33;;;9.40;96.80;;;;;;5065023;28;20714;-69
2021/04/22 03:11:06;;;;;;;6.93;2.97;;;9.30;96.80;;;;;;5049829;28;20302;-70
2021/04/22 03:13:31;;;;;;;7.63;3.17;;;9.30;96.80;;;;;;5040753;28;20228;-70
2021/04/22 03:15:57;;;;;;;5.50;3.93;;;9.30;96.80;;;;;;5016350;28;20236;-69
2021/04/22 03:18:23;;;;;;;7.10;2.57;;;9.30;96.80;;;;;;5027736;28;20223;-69
2021/04/22 03:20:49;;;;;;;4.63;2.97;;;9.20;96.70;;;;;;5048874;28;20235;-70
2021/04/22 03:23:14;;;;;;;2.73;2.53;;;9.10;96.70;;;;;;5046599;28;20228;-70
2021/04/22 03:25:40;;;;;;;3.80;2.70;;;9.10;96.90;;;;;;5014817;28;20219;-69
2021/04/22 03:28:06;;;;;;;4.43;3.03;;;9.00;96.80;;;;;;5049303;28;20230;-70
2021/04/22 03:30:34;;;;;;;8.13;2.73;;;9.00;96.70;;;;;;5032172;28;20485;-70
2021/04/22 03:33:00;;;;;;;4.20;2.50;;;9.00;96.70;;;;;;5032456;28;20687;-70
2021/04/22 03:35:26;;;;;;;9.80;3.70;;;9.00;96.80;;;;;;5031846;28;20486;-70
2021/04/22 03:37:52;;;;;;;3.93;2.10;;;8.90;96.60;;;;;;5049296;28;20477;-70
2021/04/22 03:40:19;;;;;;;2.40;2.20;;;8.90;96.60;;;;;;5049918;28;20297;-71
2021/04/22 03:42:45;;;;;;;5.40;2.03;;;8.90;96.60;;;;;;5048571;28;20536;-70
2021/04/22 03:45:12;;;;;;;2.73;1.20;;;8.80;96.40;;;;;;5022886;28;20512;-70
2021/04/22 03:47:38;;;;;;;3.03;1.17;;;8.70;96.40;;;;;;5032695;28;20219;-69
2021/04/22 03:50:06;;;;;;;6.90;2.70;;;8.60;96.30;;;;;;5048949;28;20472;-70
2021/04/22 03:52:32;;;;;;;11.70;2.27;;;8.50;96.40;;;;;;5048258;28;20211;-70
2021/04/22 03:54:57;;;;;;;4.33;1.77;;;8.50;96.40;;;;;;5016289;28;20466;-71
2021/04/22 03:57:23;;;;;;;4.67;2.73;;;8.40;96.30;;;;;;5048516;28;20220;-70
2021/04/22 03:59:49;;;;;;;4.17;2.50;;;8.30;96.40;;;;;;5032374;28;20219;-70
2021/04/22 04:02:14;;;;;;;2.60;1.53;;;8.30;96.40;;;;;;5011957;28;20680;-70
2021/04/22 04:04:40;;;;;;;5.63;2.00;;;8.30;96.40;;;;;;5032078;28;20250;-69
2021/04/22 04:07:06;;;;;;;1.30;1.20;;;8.20;96.20;;;;;;5032483;28;20226;-69
2021/04/22 04:09:31;;;;;;;3.33;2.47;;;8.20;96.20;;;;;;5014932;28;20204;-70
2021/04/22 04:11:57;;;;;;;4.53;3.10;;;8.10;96.30;;;;;;5032399;28;20223;-71
2021/04/22 04:14:23;;;;;;;6.83;2.87;;;8.10;96.30;;;;;;5028439;28;20223;-70
2021/04/22 04:16:48;;;;;;;2.83;2.10;;;8.10;96.30;;;;;;4996903;28;20227;-70
2021/04/22 04:19:14;;;;;;;3.77;2.23;;;8.10;96.30;;;;;;5026295;28;20227;-70
2021/04/22 04:21:40;;;;;;;4.37;2.27;;;8.20;96.30;;;;;;5048702;28;20216;-70
2021/04/22 04:24:06;;;;;;;3.13;1.70;;;8.20;96.20;;;;;;5015285;28;20216;-70
2021/04/22 04:26:32;;;;;;;2.10;1.90;;;8.10;96.00;;;;;;5015026;28;20219;-70
2021/04/22 04:28:57;;;;;;;4.10;2.17;;;8.10;96.20;;;;;;5012151;28;20958;-69
2021/04/22 04:31:23;;;;;;;3.97;2.37;;;8.00;96.10;;;;;;5033265;28;20710;-70
2021/04/22 04:33:50;;;;;;;3.63;2.53;;;8.00;96.10;;;;;;5019900;28;21399;-69
2021/04/22 04:36:16;;;;;;;8.97;3.47;;;8.00;96.10;;;;;;5052346;28;20326;-69
2021/04/22 04:38:41;;;;;;;4.13;3.10;;;8.00;96.00;;;;;;5035603;28;20533;-70
2021/04/22 04:41:07;;;;;;;2.00;1.73;;;8.00;96.10;;;;;;5048141;28;20231;-69
2021/04/22 04:43:33;;;;;;;1.73;1.20;;;8.00;96.00;;;;;;5015766;28;20224;-70
2021/04/22 04:45:59;;;;;;;3.20;2.00;;;7.90;96.00;;;;;;5016092;28;20232;-70
2021/04/22 04:48:24;;;;;;;7.50;2.10;;;7.90;96.10;;;;;;5017105;28;20235;-71
2021/04/22 04:50:50;;;;;;;3.70;1.70;;;7.90;96.00;;;;;;5052936;28;20613;-69
2021/04/22 04:53:16;;;;;;;16.03;2.57;;;7.80;95.90;;;;;;5052310;28;20231;-70
2021/04/22 04:55:42;;;;;;;5.23;2.17;;;7.70;95.80;;;;;;5051538;28;20454;-69
2021/04/22 04:58:08;;;;;;;3.80;1.43;;;7.60;95.90;;;;;;5016824;28;20221;-69
2021/04/22 05:00:33;;;;;;;3.53;1.83;;;7.60;95.90;;;;;;5005904;28;20308;-70
2021/04/22 05:02:59;;;;;;;1.87;1.60;;;7.60;96.10;;;;;;5030407;28;20315;-70
2021/04/22 05:05:25;;;;;;;2.63;2.10;;;7.60;96.20;;;;;;5006538;28;20239;-70
2021/04/22 05:07:50;;;;;;;2.20;2.00;;;7.60;96.10;;;;;;5016348;28;20212;-69
2021/04/22 05:10:16;;;;;;;3.67;1.93;;;7.60;96.10;;;;;;5050589;28;20196;-70
2021/04/22 05:12:42;;;;;;;1.93;1.67;;;7.60;96.10;;;;;;5020630;28;20216;-69
2021/04/22 05:15:09;;;;;;;3.10;2.03;;;7.60;96.10;;;;;;5034628;28;20215;-70
2021/04/22 05:17:35;;;;;;;3.77;1.80;;;7.60;96.10;;;;;;5051345;28;20315;-69
2021/04/22 05:20:01;;;;;;;6.80;2.83;;;7.70;96.30;;;;;;5035374;28;20546;-70
2021/04/22 05:22:26;;;;;;;2.90;2.37;;;7.70;96.10;;;;;;5050658;28;20219;-70
2021/04/22 05:24:52;;;;;;;4.43;2.03;;;7.70;96.10;;;;;;5035015;28;20223;-70
2021/04/22 05:27:18;;;;;;;4.07;2.53;;;7.70;96.30;;;;;;5031071;28;20271;-71
2021/04/22 05:29:43;;;;;;;6.03;2.20;;;7.70;96.00;;;;;;5033975;28;20303;-69
2021/04/22 05:32:09;;;;;;;14.03;1.60;;;7.70;96.10;;;;;;5051221;28;20216;-70
2021/04/22 05:34:35;;;;;;;3.73;2.10;;;7.70;96.20;;;;;;5018306;28;20298;-70
2021/04/22 05:37:01;;;;;;;7.70;2.77;;;7.60;96.30;;;;;;5033461;28;20743;-69
2021/04/22 05:39:26;;;;;;;3.07;2.00;;;7.70;96.40;;;;;;5034270;28;20223;-69
2021/04/22 05:41:55;;;;;;;4.63;1.93;;;7.80;96.60;;;;;;5052616;28;20218;-70
2021/04/22 05:44:21;;;;;;;2.20;2.00;;;7.80;96.60;;;;;;5034939;28;20730;-70
2021/04/22 05:46:46;;;;;;;6.63;2.40;;;7.90;96.60;;;;;;5051397;28;20482;-70
2021/04/22 05:49:12;;;;;;;2.27;1.70;;;7.90;96.60;;;;;;5033686;28;20216;-70
2021/04/22 05:51:39;;;;;;;3.77;2.30;;;8.00;96.70;;;;;;5038844;28;20353;-69
2021/04/22 05:54:09;;;;;;;6.13;2.10;;;8.00;96.60;;;;;;5051479;28;20231;-70
2021/04/22 05:56:35;;;;;;;3.13;2.20;;;8.10;96.50;;;;;;5034318;28;20455;-70
2021/04/22 05:59:01;;;;;;;2.60;2.30;;;8.10;96.80;;;;;;5027285;28;20450;-70
2021/04/22 06:01:27;;;;;;;4.53;2.67;;;8.10;96.60;;;;;;4998180;28;20601;-70
2021/04/22 06:03:52;;;;;;;2.70;2.00;;;8.10;96.80;;;;;;5032663;28;20447;-69
2021/04/22 06:06:19;;;;;;;3.00;2.03;;;8.10;96.30;;;;;;4985737;28;20228;-70
2021/04/22 06:08:46;;;;;;;2.83;2.53;;;8.00;96.10;;;;;;5033629;28;20227;-69
2021/04/22 06:11:12;;;;;;;3.20;1.97;;;7.90;96.00;;;;;;5033624;28;20912;-70
2021/04/22 06:13:38;;;;;;;4.00;1.87;;;7.90;96.10;;;;;;5050815;28;20471;-70
2021/04/22 06:16:04;;;;;;;2.13;1.77;;;8.00;96.10;;;;;;5018122;28;20228;-70
2021/04/22 06:18:29;;;;;;;4.57;2.40;;;8.00;96.10;;;;;;5049666;28;20222;-71
2021/04/22 06:20:55;;;;;;;4.40;2.63;;;8.00;95.90;;;;;;5033309;28;20545;-69
2021/04/22 06:23:21;;;;;;;1.93;1.83;;;8.00;95.80;;;;;;5032600;28;20222;-70
2021/04/22 06:25:46;;;;;;;8.50;2.57;;;8.00;96.10;;;;;;5047407;28;20229;-71
2021/04/22 06:28:12;;;;;;;4.03;2.17;;;8.00;96.50;;;;;;5031700;28;20247;-70
2021/04/22 06:30:38;;;;;;;2.30;1.90;;;8.00;95.40;;;;;;5000606;28;20630;-69
2021/04/22 06:33:04;;;;;;;2.53;1.63;;;8.00;95.90;;;;;;5050646;28;20223;-69
2021/04/22 06:35:30;;;;;;;4.77;1.47;;;8.00;95.50;;;;;;5021122;28;20235;-71
2021/04/22 06:37:56;;;;;;;3.13;1.63;;;8.00;95.50;;;;;;5031549;28;20458;-70
2021/04/22 06:40:23;;;;;;;5.27;1.73;;;8.00;95.70;;;;;;5047842;28;20216;-70
2021/04/22 06:42:49;;;;;;;2.03;1.47;;;8.10;95.70;;;;;;5047637;28;20465;-70
2021/04/22 06:45:16;;;;;;;2.73;1.60;;;8.10;95.60;;;;;;5049293;28;20462;-71
2021/04/22 06:47:43;;;;;;;3.90;1.77;;;8.10;95.30;;;;;;5045096;28;20448;-70
2021/04/22 06:50:12;;;;;;;2.20;1.47;;;8.10;95.10;;;;;;5032740;28;20442;-70
2021/04/22 06:52:38;;;;;;;1.80;1.57;;;8.10;95.10;;;;;;5048733;28;20446;-70
2021/04/22 06:55:06;;;;;;;2.33;2.10;;;8.20;95.30;;;;;;5033527;28;20458;-70
2021/04/22 06:57:32;;;;;;;1.10;0.90;;;8.10;94.40;;;;;;5013086;28;20526;-70
2021/04/22 06:59:58;;;;;;;4.47;2.20;;;8.10;94.30;;;;;;5032713;28;20537;-70
2021/04/22 07:02:23;;;;;;;6.13;2.47;;;8.10;94.70;;;;;;5065852;28;20212;-70
2021/04/22 07:04:49;;;;;;;3.07;1.57;;;8.20;94.70;;;;;;5033025;28;20223;-70
2021/04/22 07:07:15;;;;;;;5.43;2.20;;;8.20;94.30;;;;;;5029943;28;20250;-70
2021/04/22 07:09:40;;;;;;;3.50;2.00;;;8.20;93.80;;;;;;5032795;28;20219;-70
2021/04/22 07:12:07;;;;;;;5.50;2.30;;;8.20;93.70;;;;;;5018592;28;20212;-70
2021/04/22 07:14:32;;;;;;;2.60;1.87;;;8.30;93.70;;;;;;5013770;28;20227;-71
2021/04/22 07:17:00;;;;;;;1.63;1.37;;;8.20;92.90;;;;;;5015923;28;20451;-70
2021/04/22 07:19:26;;;;;;;5.30;1.83;;;8.20;93.30;;;;;;5031861;28;20212;-70
2021/04/22 07:21:54;;;;;;;4.03;1.77;;;8.30;93.40;;;;;;5031877;28;20455;-70
2021/04/22 07:24:20;;;;;;;3.83;2.03;;;8.30;92.90;;;;;;5012460;28;20447;-70
2021/04/22 07:26:45;;;;;;;5.80;1.60;;;8.10;93.10;;;;;;5027504;28;20462;-69
2021/04/22 07:29:11;;;;;;;1.17;1.07;;;8.30;94.20;;;;;;5014458;28;20224;-69
2021/04/22 07:31:37;;;;;;;3.43;1.63;;;8.50;93.70;;;;;;5032883;28;20230;-70
2021/04/22 07:34:03;;;;;;;2.93;1.57;;;8.40;92.30;;;;;;5032039;28;20226;-70
2021/04/22 07:36:29;;;;;;;7.40;2.30;;;8.40;93.00;;;;;;5048846;28;20354;-69
2021/04/22 07:38:54;;;;;;;3.80;1.50;;;8.40;92.60;;;;;;5031658;28;20783;-70
2021/04/22 07:41:21;;;;;;;4.03;1.80;;;8.50;93.00;;;;;;5044898;28;20254;-69
2021/04/22 07:43:47;;;;;;;5.80;1.80;;;8.60;92.90;;;;;;5011639;28;20308;-71
2021/04/22 07:46:13;;;;;;;3.70;1.53;;;8.50;92.10;;;;;;5045006;28;20549;-72
2021/04/22 07:48:38;;;;;;;2.70;1.27;;;8.60;92.60;;;;;;5045356;28;20462;-70
2021/04/22 07:51:04;;;;;;;2.37;1.17;;;8.70;92.40;;;;;;5048569;28;20220;-70
2021/04/22 07:53:30;;;;;;;6.60;2.53;;;8.70;91.40;;;;;;5012113;28;20215;-70
2021/04/22 07:55:56;;;;;;;5.13;1.60;;;8.70;91.90;;;;;;5044872;28;20215;-70
2021/04/22 07:58:21;;;;;;;3.63;1.97;;;8.90;92.60;;;;;;5027896;28;20494;-70
2021/04/22 08:00:49;;;;;;;3.77;1.90;;;8.90;92.10;;;;;;5028201;28;20220;-70
2021/04/22 08:03:17;;;;;;;6.80;6.10;;;9.00;91.60;;;;;;5027501;28;20305;-70
2021/04/22 08:05:44;;;;;;;4.40;2.93;;;9.00;91.20;;;;;;5049124;28;20520;-70
2021/04/22 08:08:12;;;;;;;7.33;3.13;;;9.10;92.40;;;;;;5031769;28;20984;-70
2021/04/22 08:10:41;;;;;;;3.97;2.40;;;9.20;92.80;;;;;;5010619;28;20505;-70
2021/04/22 08:13:08;;;;;;;3.33;1.73;;;9.30;92.30;;;;;;5042699;28;20466;-70
2021/04/22 08:15:35;;;;;;;2.87;1.80;;;9.40;92.10;;;;;;5047314;28;20451;-71
2021/04/22 08:18:01;;;;;;;2.97;2.07;;;9.50;92.30;;;;;;5048610;28;20478;-70
2021/04/22 08:20:28;;;;;;;2.73;1.90;;;9.50;92.30;;;;;;5048179;28;20467;-69
2021/04/22 08:22:56;;;;;;;2.23;2.00;;;9.50;92.10;;;;;;5047957;28;20496;-69
2021/04/22 08:25:29;;;;;;;5.33;2.67;;;9.60;92.20;;;;;;5049315;28;20478;-69
2021/04/22 08:27:56;;;;;;;2.60;2.03;;;9.80;92.40;;;;;;5047929;28;20952;-69
2021/04/22 08:30:34;;;;;;;4.83;1.93;;;9.80;91.90;;;;;;5060766;28;20819;-69
2021/04/22 08:33:02;;;;;;;5.63;1.77;;;9.80;91.40;;;;;;5049047;28;20462;-70
2021/04/22 08:35:28;;;;;;;1.77;1.40;;;9.80;91.90;;;;;;5045145;28;21020;-70
2021/04/22 08:37:54;;;;;;;3.53;1.90;;;9.90;92.50;;;;;;5047901;28;20529;-70
2021/04/22 08:40:21;;;;;;;2.37;1.40;;;10.10;92.00;;;;;;5014744;28;20489;-70
2021/04/22 08:42:47;;;;;;;2.53;2.33;;;10.20;91.80;;;;;;5012509;28;20509;-70
2021/04/22 08:45:15;;;;;;;2.53;1.93;;;10.30;92.20;;;;;;5036689;28;20478;-70
2021/04/22 08:47:42;;;;;;;6.07;2.50;;;10.40;91.90;;;;;;5023287;28;20224;-70
2021/04/22 08:50:13;;;;;;;3.13;2.17;;;10.50;91.30;;;;;;5031070;28;20492;-70
2021/04/22 08:52:38;;;;;;;5.47;2.07;;;10.60;91.40;;;;;;5048086;28;20450;-70
2021/04/22 08:55:06;;;;;;;2.07;1.93;;;10.70;91.00;;;;;;5047732;28;20451;-70
2021/04/22 08:57:32;;;;;;;2.57;1.90;;;10.70;91.00;;;;;;5031225;28;20219;-70
2021/04/22 08:59:57;;;;;;;2.80;1.70;;;10.70;91.00;;;;;;5048005;28;20457;-71
2021/04/22 09:02:23;;;;;;;1.90;1.67;;;10.70;91.40;;;;;;5034427;28;20592;-70
2021/04/22 09:04:49;;;;;;;4.10;2.10;;;10.80;90.30;;;;;;5023514;28;20207;-69
2021/04/22 09:07:15;;;;;;;2.90;1.77;;;10.60;88.90;;;;;;5027987;28;20746;-70
2021/04/22 09:09:41;;;;;;;2.30;1.43;;;10.70;89.30;;;;;;5045561;28;20289;-70
2021/04/22 09:12:19;;;;;;;2.07;1.90;;;10.70;89.00;;;;;;5032513;28;20458;-69
2021/04/22 09:15:06;;;;;;;5.13;2.03;;;10.70;90.10;;;;;;5048096;28;20488;-70
2021/04/22 09:17:32;;;;;;;2.33;1.70;;;10.80;89.40;;;;;;5051396;28;20434;-69
2021/04/22 09:19:58;;;;;;;2.67;1.90;;;10.70;86.30;;;;;;5053077;28;20442;-69
2021/04/22 09:22:35;;;;;;;1.93;1.70;;;10.70;86.90;;;;;;5017725;28;20791;-69
2021/04/22 09:25:22;;;;;;;1.80;1.50;;;10.80;89.30;;;;;;5050664;28;20226;-70
2021/04/22 09:27:48;;;;;;;2.67;2.00;;;10.90;89.10;;;;;;5050981;28;20454;-70
2021/04/22 09:30:16;;;;;;;3.17;2.20;;;10.90;86.10;;;;;;5031312;28;20478;-70
2021/04/22 09:32:42;;;;;;;3.10;2.23;;;10.90;85.50;;;;;;5033907;28;20450;-69
2021/04/22 09:35:09;;;;;;;1.80;1.13;;;11.00;85.70;;;;;;5051952;28;20459;-70
2021/04/22 09:37:36;;;;;;;6.60;1.27;;;10.90;83.20;;;;;;5034361;28;20481;-70
2021/04/22 09:40:26;;;;;;;5.17;1.90;;;11.00;83.50;;;;;;5051662;28;20446;-69
2021/04/22 09:42:54;;;;;;;4.23;1.47;;;10.90;82.10;;;;;;5044709;28;20461;-70
2021/04/22 09:45:27;;;;;;;1.67;1.40;;;10.90;82.40;;;;;;5032001;28;20477;-70
2021/04/22 09:47:53;;;;;;;2.93;1.50;;;11.00;83.10;;;;;;5030615;28;20455;-69
2021/04/22 09:50:24;;;;;;;1.40;1.30;;;11.00;81.80;;;;;;5031147;28;20845;-70
2021/04/22 09:52:54;;;;;;;2.20;1.67;;;11.10;82.50;;;;;;5045232;28;20223;-70
2021/04/22 09:55:23;;;;;;;1.70;1.43;;;11.30;82.70;;;;;;5027108;28;20459;-70
2021/04/22 09:57:49;;;;;;;3.37;1.97;;;11.40;82.70;;;;;;5045982;28;20462;-70
2021/04/22 10:00:27;;;;;;;3.47;1.60;;;11.50;81.30;;;;;;5013802;28;20466;-70
2021/04/22 10:02:56;;;;;;;3.83;1.80;;;11.40;78.50;;;;;;5029581;28;20451;-70
2021/04/22 10:05:26;;;;;;;2.83;2.07;;;11.40;80.90;;;;;;5032057;28;20482;-70
2021/04/22 10:08:04;;;;;;;2.73;1.80;;;11.60;81.70;;;;;;5049965;28;20452;-69
2021/04/22 10:10:29;;;;;;;2.43;2.23;;;11.60;80.20;;;;;;5047083;28;20515;-70
2021/04/22 10:13:01;;;;;;;1.57;1.33;;;11.50;77.40;;;;;;5031043;28;20539;-69
2021/04/22 10:15:27;;;;;;;1.90;1.43;;;11.40;80.40;;;;;;5033613;28;20286;-70
2021/04/22 10:17:59;;;;;;;3.00;2.17;;;11.50;78.80;;;;;;5030612;28;20447;-70
2021/04/22 10:20:26;;;;;;;5.60;2.00;;;11.50;80.00;;;;;;5045748;28;21061;-71
2021/04/22 10:22:53;;;;;;;4.10;2.03;;;11.60;79.50;;;;;;5030709;28;20537;-69
2021/04/22 10:25:28;;;;;;;2.83;1.63;;;11.70;78.20;;;;;;5046789;28;21068;-70
2021/04/22 10:28:05;;;;;;;1.70;1.60;;;11.60;77.10;;;;;;5046825;28;20540;-69
2021/04/22 10:30:32;;;;;;;3.43;2.03;;;11.80;81.10;;;;;;5046981;28;20451;-70
2021/04/22 10:32:58;;;;;;;3.43;2.00;;;12.00;81.10;;;;;;5045333;28;20463;-72
2021/04/22 10:35:25;;;;;;;4.23;1.90;;;12.20;80.10;;;;;;5049478;28;20557;-70
2021/04/22 10:37:53;;;;;;;11.57;2.47;;;12.40;82.10;;;;;;5050144;28;20455;-70
2021/04/22 10:40:24;;;;;;;4.80;1.60;;;12.50;79.10;;;;;;5047973;28;20481;-70
2021/04/22 10:42:56;;;;;;;3.53;1.83;;;12.50;81.70;;;;;;5029946;28;20538;-71
2021/04/22 10:45:22;;;;;;;5.47;2.47;;;12.60;80.70;;;;;;5013054;28;20479;-71
2021/04/22 10:47:49;;;;;;;2.87;2.03;;;12.50;78.20;;;;;;5035774;28;20454;-72
2021/04/22 10:50:16;;;;;;;6.00;2.10;;;12.70;82.20;;;;;;5023650;28;20970;-71
2021/04/22 10:52:44;;;;;;;3.73;2.27;;;12.70;79.60;;;;;;5015286;28;20483;-71
2021/04/22 10:55:32;;;;;;;2.27;1.47;;;12.80;82.10;;;;;;5048915;28;20454;-72
2021/04/22 10:58:12;;;;;;;3.07;1.90;;;13.00;82.00;;;;;;5032670;28;20462;-72
2021/04/22 11:00:38;;;;;;;1.63;1.53;;;13.30;82.60;;;;;;5030667;28;20454;-72
2021/04/22 11:03:04;;;;;;;5.10;2.37;;;13.50;83.40;;;;;;5014716;28;20455;-71
2021/04/22 11:05:33;;;;;;;6.77;1.90;;;13.40;79.70;;;;;;5015645;28;20478;-71
2021/04/22 11:08:08;;;;;;;9.53;1.80;;;13.50;81.90;;;;;;4999238;28;20307;-71
2021/04/22 11:10:43;;;;;;;3.10;1.87;;;13.70;81.70;;;;;;5046442;28;20457;-71
2021/04/22 11:13:21;;;;;;;2.67;1.30;;;13.70;80.80;;;;;;5031838;28;20461;-70
2021/04/22 11:16:04;;;;;;;3.50;1.60;;;13.80;80.50;;;;;;5029609;28;20473;-71
2021/04/22 11:18:41;;;;;;;4.30;1.50;;;13.80;82.00;;;;;;5047634;28;20438;-71
2021/04/22 11:21:21;;;;;;;2.13;1.40;;;13.90;82.20;;;;;;5049412;28;20508;-72
2021/04/22 11:23:54;;;;;;;4.30;2.37;;;14.00;80.20;;;;;;5046571;28;20478;-71
2021/04/22 11:26:23;;;;;;;5.30;1.70;;;14.10;81.70;;;;;;5028002;28;20550;-71
2021/04/22 11:28:50;;;;;;;4.60;2.23;;;14.10;79.80;;;;;;5031057;28;20458;-71
2021/04/22 11:31:24;;;;;;;5.43;1.80;;;14.00;78.50;;;;;;5033224;28;20454;-71
2021/04/22 11:34:02;;;;;;;2.93;2.07;;;13.90;78.80;;;;;;5032385;28;20493;-71
2021/04/22 11:36:28;;;;;;;2.40;2.03;;;13.80;75.80;;;;;;5048633;28;20519;-70
2021/04/22 11:38:54;;;;;;;2.43;1.90;;;13.90;77.60;;;;;;5047392;28;20466;-71
2021/04/22 11:41:21;;;;;;;3.43;1.73;;;13.90;77.50;;;;;;5049351;28;20212;-71
2021/04/22 11:43:47;;;;;;;3.60;2.20;;;14.10;79.70;;;;;;5048567;28;20220;-70
2021/04/22 11:46:12;;;;;;;8.00;3.30;;;14.30;80.30;;;;;;5044534;28;20558;-71
2021/04/22 11:48:43;;;;;;;9.83;5.70;;;14.50;79.40;;;;;;5014567;28;20224;-71
2021/04/22 11:51:09;;;;;;;5.53;3.20;;;14.60;80.90;;;;;;5031655;28;20216;-70
2021/04/22 11:53:39;;;;;;;3.50;2.30;;;14.70;79.90;;;;;;5015966;28;20454;-70
2021/04/22 11:56:07;;;;;;;3.23;2.30;;;14.70;77.80;;;;;;5009315;28;20463;-67
2021/04/22 11:58:34;;;;;;;4.43;2.63;;;14.80;79.20;;;;;;5058898;28;20965;-68
2021/04/22 12:01:03;;;;;;;3.40;1.93;;;14.70;77.20;;;;;;5037076;28;20458;-71
2021/04/22 12:03:40;;;;;;;4.17;1.87;;;14.60;75.60;;;;;;5045694;28;20454;-70
2021/04/22 12:06:08;;;;;;;4.23;1.83;;;14.50;74.30;;;;;;5044640;28;20514;-71
2021/04/22 12:08:36;;;;;;;7.30;1.50;;;14.30;73.10;;;;;;5031956;28;20458;-71
2021/04/22 12:11:04;;;;;;;5.00;2.07;;;14.30;75.40;;;;;;5015023;28;21000;-69
2021/04/22 12:13:33;;;;;;;5.07;3.87;;;14.50;76.90;;;;;;5030196;28;20521;-71
2021/04/22 12:16:00;;;;;;;5.60;2.90;;;14.60;75.10;;;;;;5048360;28;20981;-71
2021/04/22 12:18:34;;;;;;;5.17;3.67;;;14.80;75.50;;;;;;5047115;28;20466;-71
2021/04/22 12:21:16;;;;;;;3.83;3.23;;;15.00;76.80;;;;;;5058360;28;20464;-71
2021/04/22 12:23:45;;;;;;;3.47;2.37;;;15.10;77.90;;;;;;5027859;28;20549;-71
2021/04/22 12:26:22;;;;;;;5.60;2.37;;;15.00;74.80;;;;;;5015030;28;20471;-71
2021/04/22 12:29:01;;;;;;;3.03;1.80;;;15.00;74.00;;;;;;5015091;28;20457;-69
2021/04/22 12:31:29;;;;;;;5.30;2.47;;;15.10;76.40;;;;;;5047860;28;20458;-71
2021/04/22 12:34:00;;;;;;;11.47;7.67;;;15.20;72.00;;;;;;5049135;28;20541;-71
2021/04/22 12:36:25;;;;;;;7.67;5.37;;;14.90;69.90;;;;;;5031175;28;20509;-71
2021/04/22 12:38:51;;;;;;;7.00;4.47;;;14.80;70.80;;;;;;5048069;28;20486;-71
2021/04/22 12:41:19;;;;;;;5.17;3.37;;;14.80;72.60;;;;;;5044496;28;20270;-71
2021/04/22 12:43:48;;;;;;;3.53;2.60;;;14.90;72.30;;;;;;5010940;28;20248;-71
2021/04/22 12:46:17;;;;;;;2.93;2.30;;;15.00;73.70;;;;;;5044142;28;20516;-72
2021/04/22 12:48:52;;;;;;;4.10;2.97;;;15.10;73.30;;;;;;5043607;28;20446;-72
2021/04/22 12:51:18;;;;;;;5.70;1.90;;;15.30;70.20;;;;;;5049090;28;20461;-71